createdAt,value
2019-02-18T00:04:22.745Z,101726.33
2019-02-18T00:09:26.936Z,101727.41
2019-02-18T00:14:30.995Z,101726.14
2019-02-18T00:19:42.220Z,101738.19
2019-02-18T00:24:46.338Z,101733.89
2019-02-18T00:29:50.548Z,101734.14
2019-02-18T00:34:54.642Z,101724.21
2019-02-18T00:39:58.807Z,101721.19
2019-02-18T00:45:03.071Z,101715.86
2019-02-18T00:50:07.372Z,101718.05
2019-02-18T00:55:11.566Z,101718.97
2019-02-18T01:00:16.288Z,101720.37
2019-02-18T01:05:21.795Z,101716.55
2019-02-18T01:10:26.512Z,101719.47
2019-02-18T01:15:30.687Z,101724.27
2019-02-18T01:20:34.807Z,101722.21
2019-02-18T01:25:39.257Z,101714.83
2019-02-18T01:30:43.293Z,101719.74
2019-02-18T01:41:14.390Z,101696.67
2019-02-18T01:46:18.443Z,101685.47
2019-02-18T01:51:22.575Z,101686.64
2019-02-18T01:56:26.803Z,101675.38
2019-02-18T02:01:30.832Z,101674.78
2019-02-18T02:06:34.947Z,101666.14
2019-02-18T02:11:39.050Z,101660.15
2019-02-18T02:16:43.170Z,101661.15
2019-02-18T02:21:47.334Z,101658.38
2019-02-18T02:27:10.347Z,101658.67
2019-02-18T02:32:14.424Z,101655.19
2019-02-18T02:37:18.600Z,101652.22
2019-02-18T02:42:23.044Z,101653.28
2019-02-18T02:47:27.137Z,101656.22
2019-02-18T02:52:31.228Z,101654.59
2019-02-18T02:57:35.751Z,101645.02
2019-02-18T03:02:39.903Z,101651.00
2019-02-18T03:07:43.981Z,101642.41
2019-02-18T03:12:48.076Z,101642.73
2019-02-18T03:17:52.143Z,101647.26
2019-02-18T03:22:56.277Z,101645.14
2019-02-18T03:28:38.516Z,101645.35
2019-02-18T03:33:49.133Z,101648.22
2019-02-18T03:38:53.204Z,101647.89
2019-02-18T03:43:57.324Z,101655.48
2019-02-18T03:49:01.441Z,101649.08
2019-02-18T03:54:05.679Z,101651.35
2019-02-18T03:59:09.730Z,101650.23
2019-02-18T04:04:13.934Z,101653.76
2019-02-18T04:09:18.107Z,101650.02
2019-02-18T04:14:22.130Z,101641.43
2019-02-18T04:19:26.208Z,101659.80
2019-02-18T04:24:30.305Z,101659.27
2019-02-18T04:29:34.342Z,101657.92
2019-02-18T04:34:38.394Z,101649.77
2019-02-18T04:39:42.840Z,101646.83
2019-02-18T04:44:47.005Z,101646.61
2019-02-18T04:49:51.077Z,101647.42
2019-02-18T04:54:55.505Z,101649.98
2019-02-18T05:05:15.240Z,101645.66
2019-02-18T05:10:19.302Z,101647.37
2019-02-18T05:15:23.632Z,101646.34
2019-02-18T05:20:27.793Z,101645.70
2019-02-18T05:30:47.484Z,101639.61
2019-02-18T05:35:51.560Z,101633.84
2019-02-18T05:40:55.788Z,101634.73
2019-02-18T05:45:59.939Z,101632.30
2019-02-18T05:51:05.745Z,101631.98
2019-02-18T06:01:25.037Z,101641.41
2019-02-18T06:06:29.125Z,101636.14
2019-02-18T06:11:33.517Z,101630.77
2019-02-18T06:16:56.656Z,101641.01
2019-02-18T06:22:00.730Z,101639.80
2019-02-18T06:27:04.783Z,101640.55
2019-02-18T06:32:08.865Z,101640.42
2019-02-18T06:37:12.872Z,101647.06
2019-02-18T06:42:16.961Z,101649.63
2019-02-18T06:47:21.036Z,101644.56
2019-02-18T06:52:25.106Z,101651.19
2019-02-18T06:57:29.195Z,101661.34
2019-02-18T07:02:38.616Z,101660.06
2019-02-18T07:08:01.764Z,101665.45
2019-02-18T07:13:05.842Z,101663.45
2019-02-18T07:18:10.314Z,101664.89
2019-02-18T07:23:14.410Z,101668.09
2019-02-18T07:28:18.784Z,101669.88
2019-02-18T07:33:22.903Z,101670.59
2019-02-18T07:38:27.284Z,101665.69
2019-02-18T07:43:31.391Z,101665.33
2019-02-18T07:48:36.776Z,101666.77
2019-02-18T07:53:47.646Z,101655.05
2019-02-18T07:58:51.763Z,101660.95
2019-02-18T08:03:55.848Z,101668.82
2019-02-18T08:08:59.977Z,101660.38
2019-02-18T08:14:04.073Z,101666.22
2019-02-18T08:19:09.832Z,101668.70
2019-02-18T08:24:13.942Z,101665.42
2019-02-18T08:29:17.995Z,101660.98
2019-02-18T08:34:22.049Z,101661.70
2019-02-18T08:39:26.204Z,101661.98
2019-02-18T08:44:30.355Z,101655.88
2019-02-18T08:49:34.413Z,101667.17
2019-02-18T08:59:54.117Z,101659.33
2019-02-18T09:04:58.218Z,101660.73
2019-02-18T09:15:17.782Z,101653.47
2019-02-18T09:20:21.844Z,101654.55
2019-02-18T09:25:25.868Z,101645.64
2019-02-18T09:30:29.857Z,101645.06
2019-02-18T09:35:33.899Z,101644.41
2019-02-18T09:40:44.703Z,101651.05
2019-02-18T09:45:49.908Z,101649.45
2019-02-18T09:50:53.967Z,101654.06
2019-02-18T10:01:13.360Z,101647.13
2019-02-18T10:06:17.438Z,101638.41
2019-02-18T10:11:21.494Z,101647.98
2019-02-18T10:16:25.639Z,101646.95
2019-02-18T10:21:29.689Z,101598.88
2019-02-18T10:26:52.839Z,101627.45
2019-02-18T10:31:56.901Z,101627.45
2019-02-18T10:37:00.980Z,101625.73
2019-02-18T10:42:05.074Z,101627.00
2019-02-18T10:47:09.110Z,101613.03
2019-02-18T10:52:13.269Z,101605.46
2019-02-18T10:57:17.390Z,101595.08
2019-02-18T11:02:23.115Z,101597.30
2019-02-18T11:07:28.877Z,101594.67
2019-02-18T11:12:32.904Z,101581.03
2019-02-18T11:17:39.165Z,101571.22
2019-02-18T11:22:48.590Z,101563.55
2019-02-18T11:27:52.630Z,101559.86
2019-02-18T11:33:03.950Z,101558.87
2019-02-18T11:38:08.047Z,101543.52
2019-02-18T11:43:23.142Z,101538.98
2019-02-18T11:48:27.217Z,101538.16
2019-02-18T11:53:31.345Z,101535.20
2019-02-18T11:58:35.469Z,101529.44
2019-02-18T12:03:40.013Z,101517.58
2019-02-18T12:08:45.798Z,101509.34
2019-02-18T12:13:49.900Z,101506.23
2019-02-18T12:18:53.942Z,101506.18
2019-02-18T12:23:57.990Z,101497.95
2019-02-18T12:29:02.124Z,101492.02
2019-02-18T12:34:06.176Z,101483.25
2019-02-18T12:39:10.229Z,101474.12
2019-02-18T12:49:51.042Z,101471.34
2019-02-18T12:55:05.266Z,101473.66
2019-02-18T13:05:32.428Z,101447.36
2019-02-18T13:10:43.829Z,101448.23
2019-02-18T13:15:47.895Z,101437.56
2019-02-18T13:26:07.224Z,101423.74
2019-02-18T13:31:12.997Z,101416.86
2019-02-18T13:36:22.332Z,101410.36
2019-02-18T13:41:32.299Z,101401.19
2019-02-18T13:46:36.452Z,101394.93
2019-02-18T13:51:40.612Z,101400.41
2019-02-18T13:56:44.651Z,101400.91
2019-02-18T14:01:48.679Z,101389.26
2019-02-18T14:06:52.744Z,101386.81
2019-02-18T14:11:56.957Z,101376.11
2019-02-18T14:17:01.104Z,101373.17
2019-02-18T14:22:13.022Z,101370.89
2019-02-18T14:32:32.466Z,101365.80
2019-02-18T14:37:38.205Z,101364.20
2019-02-18T14:42:49.425Z,101355.28
2019-02-18T14:47:55.253Z,101357.07
2019-02-18T14:53:01.018Z,101351.36
2019-02-18T14:58:07.538Z,101344.30
2019-02-18T15:03:13.344Z,101347.34
2019-02-18T15:08:17.569Z,101353.92
2019-02-18T15:13:22.066Z,101343.98
2019-02-18T15:18:26.268Z,101346.95
2019-02-18T15:23:32.134Z,101329.42
2019-02-18T15:28:37.913Z,101327.35
2019-02-18T15:33:44.557Z,101327.54
2019-02-18T15:38:50.345Z,101325.30
2019-02-18T15:43:56.202Z,101323.13
2019-02-18T15:49:01.974Z,101317.50
2019-02-18T15:54:06.150Z,101313.86
2019-02-18T15:59:11.885Z,101320.18
2019-02-18T16:04:26.539Z,101312.80
2019-02-18T16:09:32.608Z,101310.16
2019-02-18T16:14:47.292Z,101308.16
2019-02-18T16:19:53.419Z,101303.15
2019-02-18T16:25:13.693Z,101301.53
2019-02-18T16:30:19.773Z,101296.84
2019-02-18T16:35:23.837Z,101301.36
2019-02-18T16:40:27.910Z,101310.96
2019-02-18T16:45:34.084Z,101306.82
2019-02-18T16:50:48.977Z,101305.40
2019-02-18T17:01:15.379Z,101309.89
2019-02-18T17:06:21.100Z,101307.22
2019-02-18T17:11:25.428Z,101306.05
2019-02-18T17:16:36.622Z,101305.80
2019-02-18T17:21:42.435Z,101301.56
2019-02-18T17:26:46.552Z,101303.57
2019-02-18T17:31:50.970Z,101298.02
2019-02-18T17:37:14.197Z,101290.69
2019-02-18T17:42:25.231Z,101283.52
2019-02-18T17:47:34.983Z,101291.41
2019-02-18T17:52:39.086Z,101294.36
2019-02-18T17:57:43.244Z,101282.91
2019-02-18T18:02:47.368Z,101277.48
2019-02-18T18:07:51.858Z,101273.73
2019-02-18T18:12:56.260Z,101264.03
2019-02-18T18:18:00.787Z,101252.67
2019-02-18T18:23:06.574Z,101248.23
2019-02-18T18:28:10.692Z,101253.35
2019-02-18T18:33:16.538Z,101249.19
2019-02-18T18:38:20.645Z,101252.12
2019-02-18T18:43:33.414Z,101248.66
2019-02-18T18:48:36.340Z,101239.55
2019-02-18T18:53:40.475Z,101235.40
2019-02-18T18:58:55.149Z,101231.39
2019-02-18T19:03:59.211Z,101229.97
2019-02-18T19:09:11.237Z,101213.86
2019-02-18T19:14:21.033Z,101209.23
2019-02-18T19:19:25.240Z,101205.06
2019-02-18T19:24:53.991Z,101208.41
2019-02-18T19:36:06.549Z,101206.81
2019-02-18T19:41:29.585Z,101208.55
2019-02-18T19:52:30.695Z,101208.19
2019-02-18T19:57:37.245Z,101206.08
2019-02-18T20:07:57.269Z,101202.47
2019-02-18T20:13:01.337Z,101196.40
2019-02-18T20:18:05.415Z,101190.19
2019-02-18T20:23:09.541Z,101179.61
2019-02-18T20:28:13.680Z,101179.38
2019-02-18T20:33:17.727Z,101175.17
2019-02-18T20:38:29.009Z,101181.11
2019-02-18T20:43:35.065Z,101168.61
2019-02-18T20:48:47.334Z,101169.28
2019-02-18T20:53:53.581Z,101168.72
2019-02-18T20:59:17.459Z,101169.86
2019-02-18T21:04:41.081Z,101156.78
2019-02-18T21:09:45.643Z,101154.72
2019-02-18T21:15:08.823Z,101156.05
2019-02-18T21:25:28.080Z,101151.72
2019-02-18T21:30:32.131Z,101143.09
2019-02-18T21:35:36.289Z,101148.33
2019-02-18T21:40:40.414Z,101140.34
2019-02-18T21:45:44.555Z,101137.99
2019-02-18T21:50:50.361Z,101130.67
2019-02-18T21:55:54.450Z,101122.48
2019-02-18T22:01:06.104Z,101113.47
2019-02-18T22:06:10.496Z,101116.64
2019-02-18T22:11:14.575Z,101122.48
2019-02-18T22:16:18.801Z,101116.66
2019-02-18T22:21:22.904Z,101113.81
2019-02-18T22:26:27.017Z,101103.30
2019-02-18T22:31:31.426Z,101098.66
2019-02-18T22:36:35.526Z,101110.41
2019-02-18T22:41:39.634Z,101107.43
2019-02-18T22:46:43.792Z,101102.33
2019-02-18T22:57:02.692Z,101094.22
2019-02-18T23:02:14.331Z,101093.91
2019-02-18T23:07:18.381Z,101091.17
2019-02-18T23:12:22.466Z,101086.83
2019-02-18T23:17:26.601Z,101094.41
2019-02-18T23:22:30.661Z,101087.36
2019-02-18T23:27:34.732Z,101089.02
2019-02-18T23:37:54.145Z,101075.42
2019-02-18T23:42:59.891Z,101078.98
2019-02-18T23:48:04.019Z,101090.44
2019-02-18T23:53:08.105Z,101084.28
2019-02-18T23:58:12.195Z,101079.97
